createdAt,value
2018-08-09T00:01:44.656Z,23.90
2018-08-09T00:04:12.242Z,23.90
2018-08-09T00:06:39.866Z,23.90
2018-08-09T00:09:08.490Z,23.90
2018-08-09T00:11:36.356Z,23.90
2018-08-09T00:14:03.904Z,23.90
2018-08-09T00:16:31.514Z,23.90
2018-08-09T00:18:59.067Z,23.90
2018-08-09T00:21:26.640Z,23.80
2018-08-09T00:23:54.260Z,23.80
2018-08-09T00:26:21.822Z,23.80
2018-08-09T00:28:49.368Z,23.70
2018-08-09T00:31:16.962Z,23.80
2018-08-09T00:33:44.540Z,23.80
2018-08-09T00:36:12.130Z,23.80
2018-08-09T00:38:39.908Z,23.80
2018-08-09T00:41:07.498Z,23.70
2018-08-09T00:43:35.106Z,23.60
2018-08-09T00:46:02.770Z,23.60
2018-08-09T00:48:31.062Z,23.50
2018-08-09T00:50:58.632Z,23.50
2018-08-09T00:53:26.212Z,23.50
2018-08-09T00:55:53.832Z,23.40
2018-08-09T00:58:21.526Z,23.40
2018-08-09T01:00:49.156Z,23.40
2018-08-09T01:03:16.700Z,23.40
2018-08-09T01:05:44.377Z,23.30
2018-08-09T01:08:11.991Z,23.30
2018-08-09T01:10:39.596Z,23.40
2018-08-09T01:13:07.215Z,23.40
2018-08-09T01:15:34.803Z,23.30
2018-08-09T01:18:02.357Z,23.30
2018-08-09T01:20:29.919Z,23.30
2018-08-09T01:22:57.531Z,23.30
2018-08-09T01:25:25.121Z,23.30
2018-08-09T01:27:52.641Z,23.20
2018-08-09T01:30:20.277Z,23.20
2018-08-09T01:32:47.803Z,23.20
2018-08-09T01:35:15.397Z,23.20
2018-08-09T01:37:43.569Z,23.10
2018-08-09T01:40:11.152Z,23.10
2018-08-09T01:42:50.068Z,23.00
2018-08-09T01:45:17.659Z,23.00
2018-08-09T01:47:45.425Z,23.00
2018-08-09T01:50:13.049Z,22.90
2018-08-09T01:52:40.618Z,22.90
2018-08-09T01:55:08.309Z,22.90
2018-08-09T01:57:36.177Z,22.80
2018-08-09T02:00:04.701Z,22.80
2018-08-09T02:02:32.267Z,22.80
2018-08-09T02:04:59.914Z,22.80
2018-08-09T02:07:27.849Z,22.70
2018-08-09T02:09:55.406Z,22.70
2018-08-09T02:12:23.031Z,22.60
2018-08-09T02:14:50.587Z,22.60
2018-08-09T02:17:18.185Z,22.60
2018-08-09T02:19:45.761Z,22.60
2018-08-09T02:22:13.333Z,22.60
2018-08-09T02:24:40.934Z,22.60
2018-08-09T02:27:08.538Z,22.50
2018-08-09T02:29:36.098Z,22.50
2018-08-09T02:32:03.675Z,22.50
2018-08-09T02:34:31.270Z,22.50
2018-08-09T02:36:58.962Z,22.40
2018-08-09T02:39:26.551Z,22.40
2018-08-09T02:41:54.169Z,22.40
2018-08-09T02:44:21.731Z,22.40
2018-08-09T02:46:49.563Z,22.40
2018-08-09T02:49:17.224Z,22.40
2018-08-09T02:51:44.778Z,22.40
2018-08-09T02:54:12.366Z,22.30
2018-08-09T02:56:40.008Z,22.30
2018-08-09T02:59:07.578Z,22.30
2018-08-09T03:01:35.190Z,22.30
2018-08-09T03:04:02.849Z,22.20
2018-08-09T03:06:30.428Z,22.20
2018-08-09T03:08:58.065Z,22.20
2018-08-09T03:11:25.748Z,22.20
2018-08-09T03:13:53.294Z,22.20
2018-08-09T03:16:20.846Z,22.20
2018-08-09T03:18:48.456Z,22.20
2018-08-09T03:21:16.052Z,22.20
2018-08-09T03:23:43.610Z,22.20
2018-08-09T03:26:11.326Z,22.10
2018-08-09T03:28:38.886Z,22.20
2018-08-09T03:31:06.461Z,22.20
2018-08-09T03:33:34.153Z,22.20
2018-08-09T03:36:01.692Z,22.20
2018-08-09T03:38:29.198Z,22.10
2018-08-09T03:40:56.811Z,22.10
2018-08-09T03:43:24.522Z,22.10
2018-08-09T03:45:52.102Z,22.10
2018-08-09T03:48:19.658Z,22.10
2018-08-09T03:50:47.356Z,22.10
2018-08-09T03:53:14.944Z,22.20
2018-08-09T03:55:42.621Z,22.20
2018-08-09T03:58:10.205Z,22.10
2018-08-09T04:00:37.784Z,22.20
2018-08-09T04:03:05.816Z,22.20
2018-08-09T04:05:33.355Z,22.20
2018-08-09T04:08:00.896Z,22.10
2018-08-09T04:10:28.517Z,22.10
2018-08-09T04:12:56.249Z,22.10
2018-08-09T04:15:23.937Z,22.10
2018-08-09T04:17:51.606Z,22.00
2018-08-09T04:20:19.197Z,22.00
2018-08-09T04:22:46.790Z,22.10
2018-08-09T04:25:14.445Z,22.10
2018-08-09T04:27:41.992Z,22.10
2018-08-09T04:30:09.549Z,22.10
2018-08-09T04:32:37.167Z,22.20
2018-08-09T04:35:04.837Z,22.20
2018-08-09T04:37:32.431Z,22.20
2018-08-09T04:40:00.040Z,22.20
2018-08-09T04:42:27.577Z,22.30
2018-08-09T04:44:55.191Z,22.30
2018-08-09T04:47:22.832Z,22.30
2018-08-09T04:49:50.429Z,22.30
2018-08-09T04:52:18.002Z,22.30
2018-08-09T04:54:45.655Z,22.40
2018-08-09T04:57:13.243Z,22.40
2018-08-09T04:59:40.834Z,22.50
2018-08-09T05:02:08.950Z,22.60
2018-08-09T05:04:36.507Z,22.60
2018-08-09T05:07:04.093Z,22.90
2018-08-09T05:09:31.759Z,23.30
2018-08-09T05:11:59.350Z,23.40
2018-08-09T05:14:26.898Z,23.50
2018-08-09T05:16:54.571Z,23.50
2018-08-09T05:19:22.510Z,23.60
2018-08-09T05:21:50.138Z,23.60
2018-08-09T05:24:17.712Z,23.50
2018-08-09T05:26:45.313Z,23.50
2018-08-09T05:29:13.052Z,23.50
2018-08-09T05:31:40.742Z,23.50
2018-08-09T05:34:08.357Z,23.60
2018-08-09T05:36:35.926Z,23.90
2018-08-09T05:39:06.858Z,24.10
2018-08-09T05:41:34.486Z,24.20
2018-08-09T05:44:02.037Z,24.10
2018-08-09T05:46:29.737Z,24.20
2018-08-09T05:48:57.269Z,24.50
2018-08-09T05:51:24.898Z,25.50
2018-08-09T05:53:52.501Z,26.50
2018-08-09T05:56:20.298Z,27.30
2018-08-09T05:58:47.829Z,27.80
2018-08-09T06:01:15.445Z,28.10
2018-08-09T06:03:43.011Z,28.20
2018-08-09T06:06:10.667Z,28.70
2018-08-09T06:08:38.253Z,29.20
2018-08-09T06:11:05.916Z,29.50
2018-08-09T06:13:33.562Z,29.60
2018-08-09T06:16:01.310Z,29.80
2018-08-09T06:18:28.876Z,30.00
2018-08-09T06:20:56.456Z,30.20
2018-08-09T06:23:24.051Z,30.40
2018-08-09T06:25:51.593Z,30.50
2018-08-09T06:28:19.189Z,30.50
2018-08-09T06:30:46.845Z,30.60
2018-08-09T06:33:14.425Z,30.70
2018-08-09T06:35:42.031Z,30.80
2018-08-09T06:38:09.678Z,31.00
2018-08-09T06:40:37.282Z,31.10
2018-08-09T06:43:04.848Z,31.30
2018-08-09T06:45:32.518Z,31.40
2018-08-09T06:48:00.193Z,31.70
2018-08-09T06:50:27.836Z,31.80
2018-08-09T06:52:55.440Z,32.00
2018-08-09T06:55:23.038Z,32.30
2018-08-09T06:57:50.617Z,32.40
2018-08-09T07:00:18.295Z,32.70
2018-08-09T07:07:44.753Z,33.70
2018-08-09T07:10:12.331Z,34.70
2018-08-09T07:12:39.907Z,35.10
2018-08-09T07:15:09.910Z,35.60
2018-08-09T07:17:38.355Z,35.70
2018-08-09T07:20:06.842Z,35.40
2018-08-09T07:22:34.424Z,35.50
2018-08-09T07:25:02.015Z,35.50
2018-08-09T07:27:29.598Z,35.30
2018-08-09T07:29:57.448Z,35.70
2018-08-09T07:32:25.042Z,36.10
2018-08-09T07:34:52.841Z,36.60
2018-08-09T07:37:20.445Z,36.90
2018-08-09T07:39:48.088Z,37.50
2018-08-09T07:42:15.568Z,37.50
2018-08-09T07:44:43.217Z,37.10
2018-08-09T07:47:10.786Z,36.80
2018-08-09T07:49:38.484Z,36.30
2018-08-09T07:52:06.104Z,36.00
2018-08-09T07:54:33.723Z,36.10
2018-08-09T07:57:01.430Z,35.60
2018-08-09T07:59:29.001Z,35.50
2018-08-09T08:01:56.564Z,35.40
2018-08-09T08:04:24.123Z,35.30
2018-08-09T08:06:51.783Z,34.80
2018-08-09T08:09:19.323Z,34.40
2018-08-09T08:11:46.903Z,33.80
2018-08-09T08:14:14.553Z,33.30
2018-08-09T08:16:42.167Z,32.80
2018-08-09T08:19:09.821Z,32.50
2018-08-09T08:21:37.525Z,32.30
2018-08-09T08:24:05.345Z,32.30
2018-08-09T08:26:32.961Z,32.30
2018-08-09T08:29:00.613Z,32.40
2018-08-09T08:31:28.210Z,32.50
2018-08-09T08:33:55.851Z,32.40
2018-08-09T08:36:23.460Z,32.30
2018-08-09T08:38:51.046Z,32.30
2018-08-09T08:41:18.685Z,32.10
2018-08-09T08:43:46.332Z,32.10
2018-08-09T08:46:14.112Z,32.10
2018-08-09T08:48:41.740Z,32.00
2018-08-09T08:51:09.389Z,31.90
2018-08-09T08:53:36.943Z,31.70
2018-08-09T08:56:04.540Z,31.60
2018-08-09T08:58:32.346Z,31.50
2018-08-09T09:01:00.036Z,31.50
2018-08-09T09:03:27.664Z,31.40
2018-08-09T09:05:55.275Z,31.50
2018-08-09T09:08:22.844Z,31.70
2018-08-09T09:10:52.601Z,32.00
2018-08-09T09:13:20.409Z,32.50
2018-08-09T09:15:48.060Z,32.90
2018-08-09T09:18:15.676Z,33.30
2018-08-09T09:20:43.243Z,33.60
2018-08-09T09:23:10.889Z,33.80
2018-08-09T09:25:38.601Z,33.90
2018-08-09T09:28:06.209Z,34.00
2018-08-09T09:30:33.741Z,34.20
2018-08-09T09:33:01.317Z,34.50
2018-08-09T09:35:28.977Z,34.70
2018-08-09T09:37:56.535Z,34.70
2018-08-09T09:40:24.217Z,34.80
2018-08-09T09:42:51.925Z,34.90
2018-08-09T09:45:19.505Z,34.80
2018-08-09T09:47:47.083Z,34.70
2018-08-09T09:50:14.775Z,34.50
2018-08-09T09:52:42.341Z,34.40
2018-08-09T09:55:09.997Z,34.30
2018-08-09T09:57:37.905Z,34.20
2018-08-09T10:00:09.836Z,34.10
2018-08-09T10:02:37.481Z,34.10
2018-08-09T10:05:07.353Z,34.10
2018-08-09T10:07:36.376Z,34.10
2018-08-09T10:10:04.064Z,34.30
2018-08-09T10:12:31.672Z,34.40
2018-08-09T10:14:59.255Z,34.50
2018-08-09T10:17:26.845Z,34.50
2018-08-09T10:19:54.569Z,34.40
2018-08-09T10:22:22.185Z,34.30
2018-08-09T10:24:49.708Z,34.30
2018-08-09T10:27:17.392Z,34.30
2018-08-09T10:29:45.160Z,34.20
2018-08-09T10:32:12.761Z,34.20
2018-08-09T10:34:40.338Z,34.30
2018-08-09T10:37:07.950Z,34.30
2018-08-09T10:39:35.543Z,34.30
2018-08-09T10:42:04.121Z,34.30
2018-08-09T10:44:31.759Z,34.40
2018-08-09T10:46:59.357Z,34.50
2018-08-09T10:49:26.949Z,34.60
2018-08-09T10:51:54.526Z,34.70
2018-08-09T10:54:22.092Z,34.80
2018-08-09T10:56:49.682Z,34.80
2018-08-09T10:59:17.237Z,34.80
2018-08-09T11:01:44.900Z,34.80
2018-08-09T11:04:12.540Z,34.70
2018-08-09T11:06:40.210Z,34.70
2018-08-09T11:09:09.046Z,34.80
2018-08-09T11:11:36.679Z,34.80
2018-08-09T11:14:04.257Z,34.90
2018-08-09T11:16:31.892Z,35.00
2018-08-09T11:18:59.512Z,35.10
2018-08-09T11:21:27.247Z,35.20
2018-08-09T11:23:54.794Z,35.20
2018-08-09T11:26:22.500Z,35.30
2018-08-09T11:28:50.065Z,35.30
2018-08-09T11:31:17.856Z,35.30
2018-08-09T11:33:45.433Z,35.40
2018-08-09T11:36:13.170Z,35.50
2018-08-09T11:38:40.780Z,35.50
2018-08-09T11:41:08.402Z,35.60
2018-08-09T11:43:35.980Z,35.70
2018-08-09T11:46:03.566Z,35.80
2018-08-09T11:48:31.586Z,35.80
2018-08-09T11:50:59.142Z,35.80
2018-08-09T11:53:26.736Z,35.90
2018-08-09T11:55:54.357Z,35.90
2018-08-09T11:58:22.202Z,35.90
2018-08-09T12:00:50.076Z,35.90
2018-08-09T12:03:17.642Z,35.80
2018-08-09T12:05:45.203Z,35.70
2018-08-09T12:08:12.745Z,35.70
2018-08-09T12:10:40.411Z,35.60
2018-08-09T12:13:08.049Z,35.70
2018-08-09T12:15:35.714Z,35.80
2018-08-09T12:18:03.377Z,35.90
2018-08-09T12:20:30.977Z,35.90
2018-08-09T12:22:58.620Z,35.90
2018-08-09T12:25:26.333Z,35.90
2018-08-09T12:27:54.019Z,35.90
2018-08-09T12:30:21.689Z,35.90
2018-08-09T12:32:49.297Z,35.90
2018-08-09T12:35:16.911Z,35.90
2018-08-09T12:37:44.585Z,36.00
2018-08-09T12:40:12.800Z,36.00
2018-08-09T12:42:40.841Z,36.00
2018-08-09T12:45:11.182Z,36.00
2018-08-09T12:47:39.249Z,35.90
2018-08-09T12:50:10.162Z,36.00
2018-08-09T12:52:38.284Z,36.00
2018-08-09T12:55:06.544Z,36.10
2018-08-09T12:57:34.129Z,36.10
2018-08-09T13:00:01.929Z,36.20
2018-08-09T13:02:29.604Z,36.30
2018-08-09T13:04:57.262Z,36.30
2018-08-09T13:07:24.981Z,36.30
2018-08-09T13:09:52.716Z,36.30
2018-08-09T13:12:20.367Z,36.10
2018-08-09T13:14:48.005Z,35.90
2018-08-09T13:17:15.717Z,35.70
2018-08-09T13:19:43.353Z,35.50
2018-08-09T13:22:11.021Z,35.30
2018-08-09T13:24:38.625Z,35.00
2018-08-09T13:27:06.264Z,33.90
2018-08-09T13:29:33.859Z,32.70
2018-08-09T13:32:01.505Z,31.70
2018-08-09T13:34:29.053Z,30.90
2018-08-09T13:36:56.763Z,30.20
2018-08-09T13:39:24.469Z,29.80
2018-08-09T13:41:52.113Z,29.40
2018-08-09T13:44:19.737Z,29.00
2018-08-09T13:46:47.398Z,28.70
2018-08-09T13:49:15.132Z,28.30
2018-08-09T13:51:42.862Z,28.00
2018-08-09T13:54:10.476Z,27.80
2018-08-09T13:56:38.135Z,27.70
2018-08-09T13:59:05.867Z,27.50
2018-08-09T14:01:33.640Z,27.30
2018-08-09T14:04:01.308Z,27.20
2018-08-09T14:06:28.952Z,27.10
2018-08-09T14:08:56.568Z,26.80
2018-08-09T14:11:24.441Z,26.60
2018-08-09T14:13:52.082Z,26.40
2018-08-09T14:16:19.782Z,26.40
2018-08-09T14:18:47.453Z,26.30
2018-08-09T14:21:15.162Z,26.20
2018-08-09T14:23:42.794Z,26.00
2018-08-09T14:26:10.468Z,25.80
2018-08-09T14:28:38.129Z,25.70
2018-08-09T14:31:05.759Z,25.60
2018-08-09T14:33:33.461Z,25.40
2018-08-09T14:36:01.200Z,25.40
2018-08-09T14:38:28.815Z,25.30
2018-08-09T14:40:56.512Z,25.30
2018-08-09T14:43:24.151Z,25.30
2018-08-09T14:45:51.782Z,25.30
2018-08-09T14:48:19.410Z,25.30
2018-08-09T14:50:47.024Z,25.20
2018-08-09T14:53:14.581Z,25.20
2018-08-09T14:55:42.197Z,25.30
2018-08-09T14:58:09.856Z,25.40
2018-08-09T15:00:37.477Z,25.50
2018-08-09T15:03:05.134Z,25.60
2018-08-09T15:05:32.749Z,25.80
2018-08-09T15:08:00.377Z,25.90
2018-08-09T15:10:28.130Z,26.00
2018-08-09T15:12:55.740Z,26.20
2018-08-09T15:15:23.529Z,26.30
2018-08-09T15:17:51.154Z,26.40
2018-08-09T15:20:18.805Z,26.40
2018-08-09T15:22:46.485Z,26.50
2018-08-09T15:25:14.149Z,26.50
2018-08-09T15:27:41.793Z,26.50
2018-08-09T15:30:12.952Z,26.50
2018-08-09T15:32:40.800Z,26.60
2018-08-09T15:35:08.482Z,26.60
2018-08-09T15:37:39.127Z,26.70
2018-08-09T15:40:08.211Z,26.80
2018-08-09T15:42:36.549Z,26.90
2018-08-09T15:45:05.125Z,27.00
2018-08-09T15:47:33.019Z,27.00
2018-08-09T15:50:00.659Z,27.10
2018-08-09T15:52:28.273Z,27.20
2018-08-09T15:54:56.025Z,27.30
2018-08-09T15:57:23.851Z,27.50
2018-08-09T15:59:51.520Z,27.60
2018-08-09T16:02:19.182Z,27.60
2018-08-09T16:04:46.843Z,27.60
2018-08-09T16:07:15.414Z,27.60
2018-08-09T16:09:43.118Z,27.60
2018-08-09T16:12:10.777Z,27.60
2018-08-09T16:14:38.382Z,27.60
2018-08-09T16:17:06.038Z,27.70
2018-08-09T16:19:33.674Z,27.70
2018-08-09T16:22:01.778Z,27.80
2018-08-09T16:24:29.508Z,27.70
2018-08-09T16:26:57.160Z,27.80
2018-08-09T16:29:24.881Z,27.80
2018-08-09T16:31:52.568Z,27.80
2018-08-09T16:34:20.230Z,27.80
2018-08-09T16:36:47.886Z,27.80
2018-08-09T16:39:15.574Z,27.80
2018-08-09T16:41:43.254Z,27.70
2018-08-09T16:44:11.504Z,27.70
2018-08-09T16:46:39.473Z,27.50
2018-08-09T16:49:07.164Z,27.40
2018-08-09T16:51:34.786Z,27.40
2018-08-09T16:54:02.553Z,27.30
2018-08-09T16:56:30.178Z,27.20
2018-08-09T16:58:57.964Z,27.20
2018-08-09T17:01:25.730Z,27.20
2018-08-09T17:03:53.535Z,27.10
2018-08-09T17:06:21.194Z,27.10
2018-08-09T17:08:49.310Z,27.00
2018-08-09T17:11:17.079Z,26.90
2018-08-09T17:13:44.651Z,26.80
2018-08-09T17:16:12.389Z,26.70
2018-08-09T17:18:40.105Z,26.70
2018-08-09T17:21:07.820Z,26.60
2018-08-09T17:23:35.441Z,26.60
2018-08-09T17:26:03.325Z,26.50
2018-08-09T17:28:30.977Z,26.50
2018-08-09T17:30:58.669Z,26.50
2018-08-09T17:33:26.334Z,26.40
2018-08-09T17:35:54.037Z,26.40
2018-08-09T17:38:21.683Z,26.30
2018-08-09T17:40:49.314Z,26.30
2018-08-09T17:43:17.169Z,26.30
2018-08-09T17:45:44.853Z,26.20
2018-08-09T17:48:12.420Z,26.20
2018-08-09T17:50:40.079Z,26.10
2018-08-09T17:53:08.161Z,26.10
2018-08-09T17:55:35.828Z,26.10
2018-08-09T17:58:03.914Z,26.00
2018-08-09T18:00:33.186Z,26.00
2018-08-09T18:03:00.858Z,25.90
2018-08-09T18:05:28.550Z,25.90
2018-08-09T18:07:57.702Z,25.80
2018-08-09T18:10:29.777Z,25.80
2018-08-09T18:12:57.697Z,25.80
2018-08-09T18:15:26.591Z,25.70
2018-08-09T18:17:54.622Z,25.60
2018-08-09T18:20:24.420Z,25.60
2018-08-09T18:22:52.164Z,25.50
2018-08-09T18:25:19.847Z,25.50
2018-08-09T18:27:47.562Z,25.40
2018-08-09T18:30:16.738Z,25.40
2018-08-09T18:32:44.513Z,25.30
2018-08-09T18:35:13.675Z,25.20
2018-08-09T18:37:41.443Z,25.20
2018-08-09T18:40:12.101Z,25.10
2018-08-09T18:42:40.131Z,25.10
2018-08-09T18:45:08.925Z,25.00
2018-08-09T18:47:37.058Z,25.00
2018-08-09T18:50:13.719Z,25.00
2018-08-09T18:52:41.713Z,24.90
2018-08-09T18:55:10.365Z,24.80
2018-08-09T18:57:38.547Z,24.80
2018-08-09T19:00:16.954Z,24.70
2018-08-09T19:02:45.192Z,24.70
2018-08-09T19:05:13.004Z,24.60
2018-08-09T19:07:40.849Z,24.50
2018-08-09T19:10:11.651Z,24.40
2018-08-09T19:12:39.442Z,24.40
2018-08-09T19:15:08.461Z,24.30
2018-08-09T19:17:36.754Z,24.30
2018-08-09T19:20:07.018Z,24.20
2018-08-09T19:22:34.732Z,24.10
2018-08-09T19:25:02.726Z,24.20
2018-08-09T19:27:30.343Z,24.10
2018-08-09T19:29:57.984Z,24.10
2018-08-09T19:32:28.921Z,24.10
2018-08-09T19:34:56.573Z,24.20
2018-08-09T19:37:24.259Z,24.10
2018-08-09T19:39:51.889Z,24.10
2018-08-09T19:42:19.578Z,24.10
2018-08-09T19:44:47.269Z,24.10
2018-08-09T19:47:14.971Z,24.00
2018-08-09T19:49:42.698Z,24.00
2018-08-09T19:52:10.349Z,23.90
2018-08-09T19:54:37.997Z,23.90
2018-08-09T19:57:18.115Z,23.90
2018-08-09T19:59:47.067Z,23.90
2018-08-09T20:02:14.759Z,23.90
2018-08-09T20:04:42.363Z,23.90
2018-08-09T20:07:10.177Z,23.80
2018-08-09T20:09:37.909Z,23.80
2018-08-09T20:12:19.477Z,23.90
2018-08-09T20:14:48.918Z,23.80
2018-08-09T20:17:16.630Z,23.70
2018-08-09T20:19:44.222Z,23.70
2018-08-09T20:22:17.579Z,23.70
2018-08-09T20:24:51.636Z,23.70
2018-08-09T20:27:20.694Z,23.60
2018-08-09T20:29:48.375Z,23.60
2018-08-09T20:32:16.046Z,23.60
2018-08-09T20:34:43.767Z,23.60
2018-08-09T20:37:11.388Z,23.50
2018-08-09T20:39:39.002Z,23.40
2018-08-09T20:42:17.214Z,23.40
2018-08-09T20:44:54.148Z,23.30
2018-08-09T20:47:22.633Z,23.30
2018-08-09T20:49:54.536Z,23.20
2018-08-09T20:52:22.780Z,23.20
2018-08-09T20:54:50.406Z,23.20
2018-08-09T20:57:18.495Z,23.20
2018-08-09T20:59:46.195Z,23.10
2018-08-09T21:02:13.949Z,23.10
2018-08-09T21:04:41.650Z,23.10
2018-08-09T21:07:09.381Z,23.00
2018-08-09T21:09:37.001Z,23.00
2018-08-09T21:12:04.737Z,23.00
2018-08-09T21:14:32.419Z,22.90
2018-08-09T21:17:00.065Z,22.90
2018-08-09T21:19:27.942Z,22.90
2018-08-09T21:21:58.602Z,22.90
2018-08-09T21:24:26.197Z,22.90
2018-08-09T21:26:53.817Z,22.90
2018-08-09T21:29:21.468Z,22.80
2018-08-09T21:31:49.070Z,22.80
2018-08-09T21:34:16.681Z,22.80
2018-08-09T21:36:51.060Z,22.70
2018-08-09T21:39:18.646Z,22.70
2018-08-09T21:41:46.225Z,22.70
2018-08-09T21:44:13.871Z,22.60
2018-08-09T21:46:41.552Z,22.60
2018-08-09T21:49:09.069Z,22.60
2018-08-09T21:51:36.729Z,22.60
2018-08-09T21:54:04.404Z,22.50
2018-08-09T21:56:32.017Z,22.40
2018-08-09T21:58:59.760Z,22.40
2018-08-09T22:01:27.537Z,22.40
2018-08-09T22:03:55.117Z,22.40
2018-08-09T22:06:28.444Z,22.30
2018-08-09T22:09:01.755Z,22.30
2018-08-09T22:11:35.214Z,22.30
2018-08-09T22:14:08.459Z,22.20
2018-08-09T22:16:41.677Z,22.20
2018-08-09T22:19:14.918Z,22.20
2018-08-09T22:21:48.175Z,22.10
2018-08-09T22:24:15.773Z,22.00
2018-08-09T22:26:43.377Z,22.00
2018-08-09T22:29:11.041Z,22.00
2018-08-09T22:31:38.645Z,22.00
2018-08-09T22:34:06.276Z,21.90
2018-08-09T22:36:33.873Z,21.90
2018-08-09T22:39:01.421Z,21.90
2018-08-09T22:41:28.997Z,21.80
2018-08-09T22:43:56.649Z,21.80
2018-08-09T22:46:24.325Z,21.70
2018-08-09T22:48:51.881Z,21.70
2018-08-09T22:51:19.582Z,21.70
2018-08-09T22:53:47.230Z,21.70
2018-08-09T22:56:14.881Z,21.70
2018-08-09T22:58:42.449Z,21.60
2018-08-09T23:01:10.225Z,21.50
2018-08-09T23:03:37.939Z,21.50
2018-08-09T23:06:06.276Z,21.40
2018-08-09T23:08:33.857Z,21.40
2018-08-09T23:11:01.496Z,21.40
2018-08-09T23:13:29.123Z,21.30
2018-08-09T23:15:56.731Z,21.30
2018-08-09T23:18:24.502Z,21.30
2018-08-09T23:20:52.154Z,21.30
2018-08-09T23:23:19.855Z,21.20
2018-08-09T23:25:47.474Z,21.20
2018-08-09T23:28:15.201Z,21.20
2018-08-09T23:30:42.766Z,21.10
2018-08-09T23:33:10.392Z,21.00
2018-08-09T23:35:37.992Z,21.00
2018-08-09T23:38:05.608Z,21.00
2018-08-09T23:40:33.278Z,20.90
2018-08-09T23:43:00.864Z,20.90
2018-08-09T23:45:28.444Z,20.80
2018-08-09T23:47:56.045Z,20.80
2018-08-09T23:50:23.709Z,20.80
2018-08-09T23:52:51.448Z,20.70
2018-08-09T23:55:19.137Z,20.70
2018-08-09T23:57:46.776Z,20.70
